METAR Data
IDs: Format: Raw Decoded Include TAF

Data at: 1329 UTC 07 Jul 2020

KDYR 071256Z AUTO 00000KT 10SM CLR 27/24 A3001 RMK AO2 SLP166 T02720239 PNO $
KDYR 071156Z AUTO 00000KT 10SM CLR 25/24 A3000 RMK AO2 SLP160 6//// 7//// T02500239 10256 20233 PNO $
KDYR 071056Z AUTO 00000KT 6SM BR CLR 23/23 RMK AO2 SLPNO T02330233 PNO $
KDYR 070956Z AUTO 00000KT 9SM CLR 23/23 A2997 RMK AO2 SLP152 T02330233 PNO $
KDYR 070856Z AUTO 00000KT 10SM CLR 24/23 A2997 RMK AO2 SLP150 6//// T02390233 55003 PNO $
KDYR 070756Z AUTO 00000KT 10SM CLR 24/24 A2996 RMK AO2 SLP147 T02390239 PNO $
KDYR 070656Z AUTO 00000KT 10SM CLR 24/24 A2996 RMK AO2 SLP149 T02440239 PNO $
KDYR 070556Z AUTO 07003KT 10SM CLR 26/24 A2998 RMK AO2 SLP153 6//// T02560239 10300 20256 403330233 50002 PNO $
KDYR 070456Z AUTO 07004KT 10SM CLR 26/24 A2999 RMK AO2 SLP158 T02610239 PNO $
KDYR 070356Z AUTO 08003KT 7SM CLR 27/25 A2998 RMK AO2 SLP156 T02670250 PNO $
KDYR 070256Z AUTO 08003KT 4SM BR CLR 27/26 A2997 RMK AO2 SLP151 6//// T02670256 53009 PNO $
KDYR 070156Z AUTO 07004KT 10SM CLR 28/27 A2996 RMK AO2 SLP146 T02830267 PNO $
KDYR 070056Z AUTO 00000KT 10SM CLR 29/25 A2995 RMK AO2 SLP146 T02890250 PNO $
KDYR 062356Z AUTO 00000KT 10SM CLR 30/26 A2994 RMK AO2 SLP142 6//// T03000261 10333 20278 55003 PNO $
KDYR 062256Z AUTO 00000KT 10SM CLR 32/23 A2994 RMK AO2 SLP141 T03170233 PNO $
KDYR 062156Z AUTO 23005KT 10SM SCT041 28/22 A2995 RMK AO2 SLP144 T02780222 PNO $
KDYR 062056Z AUTO 07004KT 10SM FEW042 33/24 A2995 RMK AO2 SLP145 6//// T03330239 58015 PNO $
KDYR 061956Z AUTO VRB04KT 10SM CLR 33/24 A2997 RMK AO2 SLP152 T03280239 PNO $
KDYR 061856Z AUTO VRB05KT 10SM CLR 32/24 A2998 RMK AO2 SLP154 T03170239 PNO $
KDYR 061756Z AUTO 08007KT 10SM CLR 32/23 A3000 RMK AO2 SLP160 6//// T03170233 10317 20239 58004 PNO $
KDYR 061656Z AUTO 09005KT 8SM CLR 31/23 A3000 RMK AO2 SLP162 T03060228 PNO $
KDYR 061556Z AUTO 09003KT 10SM CLR 29/23 A3000 RMK AO2 SLP163 T02940233 PNO $
KDYR 061456Z AUTO 14005KT 10SM CLR 28/24 A3001 RMK AO2 SLP164 6//// T02830239 50008 PNO $
KDYR 061356Z AUTO 07003KT 10SM CLR 27/23 A3001 RMK AO2 SLP165 T02720233 PNO $
KDYR 061256Z AUTO 00000KT 10SM CLR 26/24 A3000 RMK AO2 SLP162 T02560239 PNO $
KDYR 061156Z AUTO 00000KT 10SM CLR 24/24 A2998 RMK AO2 SLP155 6//// 7//// T02440239 10244 20233 53013 PNO $
KDYR 061056Z AUTO 00000KT 8SM CLR 23/23 A2997 RMK AO2 SLP150 T02330233 PNO $
KDYR 060956Z AUTO 00000KT 10SM CLR 24/23 A2996 RMK AO2 SLP148 T02390233 PNO $
KDYR 060856Z AUTO 00000KT 10SM CLR 24/24 A2994 RMK AO2 SLP142 6//// T02390239 53001 PNO $
KDYR 060756Z AUTO 34003KT 10SM CLR 24/23 A2993 RMK AO2 SLP136 T02390233 PNO $
KDYR 060656Z AUTO 00000KT 10SM CLR 24/24 A2993 RMK AO2 SLP137 T02390239 PNO $
KDYR 060556Z AUTO 00000KT 10SM CLR 24/23 A2994 RMK AO2 SLP141 6//// T02440233 10328 20244 403390211 53003 PNO $
KDYR 060456Z AUTO 16003KT 10SM CLR 25/24 A2994 RMK AO2 SLP140 T02500239 PNO $
KDYR 060356Z AUTO 22003KT 10SM FEW050 26/23 A2994 RMK AO2 SLP140 T02610233 PNO $
KDYR 060256Z AUTO 15004KT 10SM SCT050 27/24 A2993 RMK AO2 SLP139 6//// T02720239 53012 PNO $
KDYR 060156Z AUTO 15004KT 10SM CLR 28/24 A2992 RMK AO2 SLP132 T02830244 PNO $